sensor_id;sensor_type;location;lat;lon;timestamp;P1;durP1;ratioP1;P2;durP2;ratioP2
71821;SDS011;64096;52.548;13.406;2023-10-19T06:04:08;20.55;;;16.30;;
71821;SDS011;64096;52.548;13.406;2023-10-19T06:06:36;21.73;;;16.30;;
71821;SDS011;64096;52.548;13.406;2023-10-19T06:09:02;21.55;;;16.35;;
71821;SDS011;64096;52.548;13.406;2023-10-19T06:11:29;22.98;;;16.33;;
71821;SDS011;64096;52.548;13.406;2023-10-19T06:13:57;18.40;;;15.10;;
71821;SDS011;64096;52.548;13.406;2023-10-19T06:16:23;20.88;;;16.20;;
71821;SDS011;64096;52.548;13.406;2023-10-19T06:18:49;20.25;;;15.85;;
71821;SDS011;64096;52.548;13.406;2023-10-19T06:21:17;20.70;;;16.15;;
71821;SDS011;64096;52.548;13.406;2023-10-19T06:23:44;21.17;;;16.67;;
71821;SDS011;64096;52.548;13.406;2023-10-19T06:26:11;20.60;;;16.50;;
71821;SDS011;64096;52.548;13.406;2023-10-19T06:28:37;22.05;;;16.63;;
71821;SDS011;64096;52.548;13.406;2023-10-19T06:31:04;19.73;;;15.35;;
71821;SDS011;64096;52.548;13.406;2023-10-19T06:33:31;23.58;;;16.48;;
71821;SDS011;64096;52.548;13.406;2023-10-19T06:35:58;20.98;;;16.58;;
71821;SDS011;64096;52.548;13.406;2023-10-19T06:38:25;21.83;;;16.65;;
71821;SDS011;64096;52.548;13.406;2023-10-19T06:40:51;21.38;;;16.70;;
71821;SDS011;64096;52.548;13.406;2023-10-19T06:43:17;21.30;;;16.90;;
71821;SDS011;64096;52.548;13.406;2023-10-19T06:45:46;21.20;;;17.02;;
71821;SDS011;64096;52.548;13.406;2023-10-19T06:48:12;21.30;;;17.60;;
71821;SDS011;64096;52.548;13.406;2023-10-19T06:50:38;21.10;;;16.60;;
71821;SDS011;64096;52.548;13.406;2023-10-19T06:53:04;21.33;;;17.02;;
71821;SDS011;64096;52.548;13.406;2023-10-19T06:55:32;20.73;;;16.20;;
71821;SDS011;64096;52.548;13.406;2023-10-19T06:57:58;20.33;;;16.35;;
71821;SDS011;64096;52.548;13.406;2023-10-19T07:00:25;19.98;;;15.90;;
71821;SDS011;64096;52.548;13.406;2023-10-19T07:02:55;21.00;;;15.85;;
71821;SDS011;64096;52.548;13.406;2023-10-19T07:05:22;20.95;;;16.77;;
71821;SDS011;64096;52.548;13.406;2023-10-19T07:08:06;22.25;;;16.42;;
71821;SDS011;64096;52.548;13.406;2023-10-19T07:10:32;23.25;;;16.58;;
71821;SDS011;64096;52.548;13.406;2023-10-19T07:12:59;20.60;;;15.13;;
71821;SDS011;64096;52.548;13.406;2023-10-19T07:15:26;20.88;;;16.35;;
71821;SDS011;64096;52.548;13.406;2023-10-19T07:17:53;18.98;;;15.27;;
71821;SDS011;64096;52.548;13.406;2023-10-19T07:20:19;23.25;;;16.17;;
71821;SDS011;64096;52.548;13.406;2023-10-19T07:22:58;23.60;;;16.58;;
71821;SDS011;64096;52.548;13.406;2023-10-19T07:25:43;21.75;;;16.85;;
71821;SDS011;64096;52.548;13.406;2023-10-19T07:28:10;20.55;;;15.30;;
71821;SDS011;64096;52.548;13.406;2023-10-19T07:30:37;19.98;;;15.55;;
71821;SDS011;64096;52.548;13.406;2023-10-19T07:33:03;23.27;;;15.80;;
71821;SDS011;64096;52.548;13.406;2023-10-19T07:35:33;19.67;;;16.13;;
71821;SDS011;64096;52.548;13.406;2023-10-19T07:38:00;20.17;;;16.35;;
71821;SDS011;64096;52.548;13.406;2023-10-19T07:40:26;20.88;;;15.70;;
71821;SDS011;64096;52.548;13.406;2023-10-19T07:42:53;19.92;;;15.75;;
71821;SDS011;64096;52.548;13.406;2023-10-19T07:45:22;19.13;;;15.80;;
71821;SDS011;64096;52.548;13.406;2023-10-19T07:47:50;19.45;;;14.73;;
71821;SDS011;64096;52.548;13.406;2023-10-19T07:50:16;18.48;;;15.00;;
71821;SDS011;64096;52.548;13.406;2023-10-19T07:52:46;20.50;;;15.70;;
71821;SDS011;64096;52.548;13.406;2023-10-19T07:55:14;19.95;;;15.20;;
71821;SDS011;64096;52.548;13.406;2023-10-19T07:57:41;22.00;;;16.08;;
71821;SDS011;64096;52.548;13.406;2023-10-19T08:00:07;20.40;;;15.02;;
71821;SDS011;64096;52.548;13.406;2023-10-19T08:02:35;20.55;;;15.27;;
71821;SDS011;64096;52.548;13.406;2023-10-19T08:05:02;18.67;;;14.77;;
71821;SDS011;64096;52.548;13.406;2023-10-19T08:07:28;18.88;;;13.77;;
71821;SDS011;64096;52.548;13.406;2023-10-19T08:09:54;20.95;;;15.85;;
71821;SDS011;64096;52.548;13.406;2023-10-19T08:12:24;19.13;;;15.05;;
71821;SDS011;64096;52.548;13.406;2023-10-19T08:14:51;19.50;;;15.15;;
71821;SDS011;64096;52.548;13.406;2023-10-19T08:17:17;19.65;;;14.93;;
71821;SDS011;64096;52.548;13.406;2023-10-19T08:19:44;19.40;;;14.75;;
71821;SDS011;64096;52.548;13.406;2023-10-19T08:22:10;18.75;;;14.65;;
71821;SDS011;64096;52.548;13.406;2023-10-19T08:24:39;20.90;;;15.10;;
71821;SDS011;64096;52.548;13.406;2023-10-19T08:27:08;21.15;;;15.13;;
71821;SDS011;64096;52.548;13.406;2023-10-19T08:29:36;21.13;;;15.38;;
71821;SDS011;64096;52.548;13.406;2023-10-19T08:32:02;20.23;;;15.40;;
71821;SDS011;64096;52.548;13.406;2023-10-19T08:34:28;21.15;;;14.73;;
71821;SDS011;64096;52.548;13.406;2023-10-19T08:36:55;20.30;;;15.52;;
71821;SDS011;64096;52.548;13.406;2023-10-19T08:39:21;19.70;;;14.70;;
71821;SDS011;64096;52.548;13.406;2023-10-19T08:41:49;21.33;;;15.07;;
71821;SDS011;64096;52.548;13.406;2023-10-19T08:44:20;17.38;;;13.32;;
71821;SDS011;64096;52.548;13.406;2023-10-19T08:46:46;20.27;;;15.38;;
71821;SDS011;64096;52.548;13.406;2023-10-19T08:49:13;20.52;;;15.07;;
71821;SDS011;64096;52.548;13.406;2023-10-19T08:51:40;19.70;;;15.00;;
71821;SDS011;64096;52.548;13.406;2023-10-19T08:54:09;19.67;;;13.77;;
71821;SDS011;64096;52.548;13.406;2023-10-19T08:56:37;19.55;;;14.63;;
71821;SDS011;64096;52.548;13.406;2023-10-19T08:59:04;17.60;;;14.30;;
71821;SDS011;64096;52.548;13.406;2023-10-19T09:01:31;21.45;;;15.27;;
71821;SDS011;64096;52.548;13.406;2023-10-19T09:03:57;18.98;;;14.63;;
71821;SDS011;64096;52.548;13.406;2023-10-19T09:06:24;18.52;;;14.30;;
71821;SDS011;64096;52.548;13.406;2023-10-19T09:08:50;18.50;;;14.23;;
71821;SDS011;64096;52.548;13.406;2023-10-19T09:11:16;18.77;;;14.45;;
71821;SDS011;64096;52.548;13.406;2023-10-19T09:13:49;20.58;;;15.15;;
71821;SDS011;64096;52.548;13.406;2023-10-19T09:16:17;20.17;;;15.05;;
71821;SDS011;64096;52.548;13.406;2023-10-19T09:18:43;19.10;;;14.52;;
71821;SDS011;64096;52.548;13.406;2023-10-19T09:21:21;18.63;;;14.45;;
71821;SDS011;64096;52.548;13.406;2023-10-19T09:23:51;19.45;;;14.82;;
71821;SDS011;64096;52.548;13.406;2023-10-19T09:26:19;18.00;;;13.70;;
71821;SDS011;64096;52.548;13.406;2023-10-19T09:28:54;17.02;;;14.68;;
71821;SDS011;64096;52.548;13.406;2023-10-19T09:31:20;18.33;;;14.82;;
71821;SDS011;64096;52.548;13.406;2023-10-19T09:33:49;17.60;;;13.65;;
71821;SDS011;64096;52.548;13.406;2023-10-19T09:36:17;19.13;;;14.77;;
71821;SDS011;64096;52.548;13.406;2023-10-19T09:38:46;18.20;;;14.18;;
71821;SDS011;64096;52.548;13.406;2023-10-19T09:41:22;17.73;;;14.30;;
71821;SDS011;64096;52.548;13.406;2023-10-19T09:43:53;19.55;;;15.13;;
71821;SDS011;64096;52.548;13.406;2023-10-19T09:46:24;17.70;;;14.50;;
71821;SDS011;64096;52.548;13.406;2023-10-19T09:48:53;16.83;;;13.93;;
71821;SDS011;64096;52.548;13.406;2023-10-19T09:51:20;18.20;;;14.10;;
71821;SDS011;64096;52.548;13.406;2023-10-19T09:53:51;19.10;;;15.02;;
71821;SDS011;64096;52.548;13.406;2023-10-19T09:56:22;17.00;;;13.73;;
71821;SDS011;64096;52.548;13.406;2023-10-19T09:58:51;16.83;;;13.55;;
71821;SDS011;64096;52.548;13.406;2023-10-19T10:01:19;17.67;;;14.70;;
71821;SDS011;64096;52.548;13.406;2023-10-19T10:03:49;18.77;;;13.82;;
71821;SDS011;64096;52.548;13.406;2023-10-19T10:06:17;18.48;;;14.20;;
71821;SDS011;64096;52.548;13.406;2023-10-19T10:08:45;19.33;;;13.98;;
71821;SDS011;64096;52.548;13.406;2023-10-19T10:11:16;17.63;;;13.68;;
71821;SDS011;64096;52.548;13.406;2023-10-19T10:13:43;17.52;;;14.00;;
71821;SDS011;64096;52.548;13.406;2023-10-19T10:16:15;15.95;;;13.45;;
71821;SDS011;64096;52.548;13.406;2023-10-19T10:18:42;18.52;;;14.43;;
71821;SDS011;64096;52.548;13.406;2023-10-19T10:21:13;18.73;;;13.88;;
71821;SDS011;64096;52.548;13.406;2023-10-19T10:23:45;19.65;;;14.85;;
71821;SDS011;64096;52.548;13.406;2023-10-19T10:26:13;18.10;;;14.10;;
71821;SDS011;64096;52.548;13.406;2023-10-19T10:28:39;20.17;;;15.30;;
71821;SDS011;64096;52.548;13.406;2023-10-19T10:33:39;18.15;;;14.55;;
71821;SDS011;64096;52.548;13.406;2023-10-19T10:36:06;19.55;;;14.95;;
71821;SDS011;64096;52.548;13.406;2023-10-19T10:38:35;18.45;;;15.27;;
71821;SDS011;64096;52.548;13.406;2023-10-19T10:41:01;19.80;;;14.20;;
71821;SDS011;64096;52.548;13.406;2023-10-19T10:43:27;19.30;;;14.85;;
71821;SDS011;64096;52.548;13.406;2023-10-19T10:46:03;16.48;;;13.55;;
71821;SDS011;64096;52.548;13.406;2023-10-19T10:48:29;21.63;;;15.65;;
71821;SDS011;64096;52.548;13.406;2023-10-19T10:50:55;21.85;;;16.52;;
71821;SDS011;64096;52.548;13.406;2023-10-19T10:53:23;22.00;;;16.92;;
71821;SDS011;64096;52.548;13.406;2023-10-19T10:55:55;22.77;;;17.73;;
71821;SDS011;64096;52.548;13.406;2023-10-19T10:58:21;20.88;;;17.05;;
71821;SDS011;64096;52.548;13.406;2023-10-19T11:00:47;22.25;;;16.58;;
71821;SDS011;64096;52.548;13.406;2023-10-19T11:03:16;20.73;;;15.63;;
71821;SDS011;64096;52.548;13.406;2023-10-19T11:05:42;19.80;;;15.38;;
71821;SDS011;64096;52.548;13.406;2023-10-19T11:08:14;20.08;;;15.18;;
71821;SDS011;64096;52.548;13.406;2023-10-19T11:10:46;21.33;;;15.95;;
71821;SDS011;64096;52.548;13.406;2023-10-19T11:13:16;20.38;;;15.95;;
71821;SDS011;64096;52.548;13.406;2023-10-19T11:15:49;19.13;;;14.60;;
71821;SDS011;64096;52.548;13.406;2023-10-19T11:18:32;21.40;;;16.50;;
71821;SDS011;64096;52.548;13.406;2023-10-19T11:20:58;18.55;;;14.70;;
71821;SDS011;64096;52.548;13.406;2023-10-19T11:23:34;22.67;;;16.17;;
71821;SDS011;64096;52.548;13.406;2023-10-19T11:26:01;18.35;;;14.80;;
71821;SDS011;64096;52.548;13.406;2023-10-19T11:28:30;20.98;;;15.93;;
71821;SDS011;64096;52.548;13.406;2023-10-19T11:31:18;20.20;;;16.23;;
71821;SDS011;64096;52.548;13.406;2023-10-19T11:33:47;21.63;;;16.95;;
71821;SDS011;64096;52.548;13.406;2023-10-19T11:36:13;21.65;;;16.88;;
71821;SDS011;64096;52.548;13.406;2023-10-19T11:38:43;24.48;;;17.40;;
71821;SDS011;64096;52.548;13.406;2023-10-19T11:41:10;21.23;;;16.88;;
71821;SDS011;64096;52.548;13.406;2023-10-19T11:43:37;20.13;;;16.05;;
71821;SDS011;64096;52.548;13.406;2023-10-19T11:46:04;20.33;;;16.38;;
71821;SDS011;64096;52.548;13.406;2023-10-19T11:48:30;23.25;;;17.52;;
71821;SDS011;64096;52.548;13.406;2023-10-19T11:50:56;21.92;;;17.48;;
71821;SDS011;64096;52.548;13.406;2023-10-19T11:53:22;21.27;;;17.73;;
71821;SDS011;64096;52.548;13.406;2023-10-19T11:55:49;22.58;;;16.52;;
71821;SDS011;64096;52.548;13.406;2023-10-19T11:58:15;20.45;;;17.40;;
71821;SDS011;64096;52.548;13.406;2023-10-19T12:00:41;20.52;;;16.13;;
71821;SDS011;64096;52.548;13.406;2023-10-19T12:03:11;20.17;;;16.58;;
71821;SDS011;64096;52.548;13.406;2023-10-19T12:05:39;20.77;;;17.05;;
71821;SDS011;64096;52.548;13.406;2023-10-19T12:08:07;21.33;;;17.17;;
71821;SDS011;64096;52.548;13.406;2023-10-19T12:10:33;21.67;;;17.45;;
71821;SDS011;64096;52.548;13.406;2023-10-19T12:13:03;22.02;;;17.35;;
71821;SDS011;64096;52.548;13.406;2023-10-19T12:15:33;20.73;;;17.02;;
71821;SDS011;64096;52.548;13.406;2023-10-19T12:18:00;22.35;;;17.15;;
71821;SDS011;64096;52.548;13.406;2023-10-19T12:20:30;21.92;;;17.85;;
71821;SDS011;64096;52.548;13.406;2023-10-19T12:22:57;24.80;;;18.15;;
71821;SDS011;64096;52.548;13.406;2023-10-19T12:25:24;20.75;;;16.85;;
71821;SDS011;64096;52.548;13.406;2023-10-19T12:28:00;22.50;;;17.42;;
71821;SDS011;64096;52.548;13.406;2023-10-19T12:30:29;23.50;;;18.30;;
71821;SDS011;64096;52.548;13.406;2023-10-19T12:33:02;20.33;;;17.00;;
71821;SDS011;64096;52.548;13.406;2023-10-19T12:35:36;22.98;;;18.00;;
71821;SDS011;64096;52.548;13.406;2023-10-19T12:38:17;23.13;;;18.33;;
71821;SDS011;64096;52.548;13.406;2023-10-19T12:40:48;22.27;;;17.25;;
71821;SDS011;64096;52.548;13.406;2023-10-19T12:43:15;20.42;;;16.63;;
71821;SDS011;64096;52.548;13.406;2023-10-19T12:45:43;21.20;;;18.38;;
71821;SDS011;64096;52.548;13.406;2023-10-19T12:48:15;21.45;;;16.92;;
71821;SDS011;64096;52.548;13.406;2023-10-19T12:50:41;23.77;;;18.67;;
71821;SDS011;64096;52.548;13.406;2023-10-19T12:53:07;22.17;;;18.08;;
71821;SDS011;64096;52.548;13.406;2023-10-19T12:55:34;20.27;;;17.13;;
71821;SDS011;64096;52.548;13.406;2023-10-19T12:58:02;22.65;;;17.73;;
71821;SDS011;64096;52.548;13.406;2023-10-19T13:00:32;21.13;;;17.15;;
71821;SDS011;64096;52.548;13.406;2023-10-19T13:03:06;21.75;;;17.35;;
71821;SDS011;64096;52.548;13.406;2023-10-19T13:05:35;21.35;;;17.63;;
71821;SDS011;64096;52.548;13.406;2023-10-19T13:08:02;23.40;;;18.48;;
71821;SDS011;64096;52.548;13.406;2023-10-19T13:10:28;23.58;;;18.23;;
71821;SDS011;64096;52.548;13.406;2023-10-19T13:13:01;22.05;;;17.52;;
71821;SDS011;64096;52.548;13.406;2023-10-19T13:15:33;21.25;;;17.38;;
71821;SDS011;64096;52.548;13.406;2023-10-19T13:18:02;22.13;;;18.52;;
71821;SDS011;64096;52.548;13.406;2023-10-19T13:20:30;25.23;;;18.73;;
71821;SDS011;64096;52.548;13.406;2023-10-19T13:23:02;23.08;;;18.25;;
71821;SDS011;64096;52.548;13.406;2023-10-19T13:25:35;20.42;;;17.20;;
71821;SDS011;64096;52.548;13.406;2023-10-19T13:28:12;21.88;;;17.52;;
71821;SDS011;64096;52.548;13.406;2023-10-19T13:30:38;22.92;;;18.23;;
71821;SDS011;64096;52.548;13.406;2023-10-19T13:33:05;23.58;;;17.83;;
71821;SDS011;64096;52.548;13.406;2023-10-19T13:35:32;23.05;;;18.60;;
71821;SDS011;64096;52.548;13.406;2023-10-19T13:37:58;22.42;;;17.98;;
71821;SDS011;64096;52.548;13.406;2023-10-19T13:40:26;23.73;;;18.20;;
71821;SDS011;64096;52.548;13.406;2023-10-19T13:42:55;23.70;;;18.75;;
71821;SDS011;64096;52.548;13.406;2023-10-19T13:45:21;22.55;;;17.98;;
71821;SDS011;64096;52.548;13.406;2023-10-19T13:47:48;21.75;;;17.52;;
71821;SDS011;64096;52.548;13.406;2023-10-19T13:50:14;21.98;;;18.23;;
71821;SDS011;64096;52.548;13.406;2023-10-19T13:52:40;23.95;;;18.75;;
71821;SDS011;64096;52.548;13.406;2023-10-19T13:55:06;21.17;;;17.63;;
71821;SDS011;64096;52.548;13.406;2023-10-19T13:57:33;21.23;;;17.63;;
71821;SDS011;64096;52.548;13.406;2023-10-19T13:59:59;20.00;;;16.98;;
